Time;durP1;ratioP1;P1;durP2;ratioP2;P2;SDS_P1;SDS_P2;PMS_P1;PMS_P2;Temp;Humidity;BMP_temperature;BMP_pressure;BME280_temperature;BME280_humidity;BME280_pressure;Samples;Min_cycle;Max_cycle;Signal;HPM_P1;HPM_P2
2023/06/28 00:00:18;;;;;;;4.00;1.97;;;19.00;72.70;;;;;;5070239;28;20184;-85
2023/06/28 00:02:47;;;;;;;8.03;1.90;;;18.90;72.40;;;;;;5073227;28;20413;-86
2023/06/28 00:05:12;;;;;;;4.67;1.80;;;19.00;72.30;;;;;;5067609;28;20549;-84
2023/06/28 00:07:39;;;;;;;9.27;2.10;;;18.90;72.60;;;;;;5089071;28;20434;-85
2023/06/28 00:10:05;;;;;;;5.57;1.63;;;18.90;72.90;;;;;;5095265;28;20183;-85
2023/06/28 00:12:32;;;;;;;4.87;2.00;;;18.80;74.00;;;;;;5076898;28;20578;-85
2023/06/28 00:14:58;;;;;;;5.40;2.30;;;18.80;76.30;;;;;;5065594;28;22312;-85
2023/06/28 00:17:28;;;;;;;7.80;2.50;;;18.80;79.10;;;;;;5068114;28;20437;-85
2023/06/28 00:19:54;;;;;;;5.73;2.13;;;18.60;81.10;;;;;;5063541;28;20457;-88
2023/06/28 00:22:22;;;;;;;3.40;2.10;;;18.60;83.30;;;;;;5074042;28;20513;-87
2023/06/28 00:24:47;;;;;;;4.53;1.40;;;18.50;84.90;;;;;;5073468;28;23623;-86
2023/06/28 00:27:13;;;;;;;3.43;1.70;;;18.50;86.70;;;;;;5073629;28;20509;-84
2023/06/28 00:29:38;;;;;;;2.50;1.53;;;18.40;89.30;;;;;;5075354;28;20171;-85
2023/06/28 00:32:04;;;;;;;2.20;1.70;;;18.40;90.30;;;;;;5072542;28;21223;-86
2023/06/28 00:34:30;;;;;;;4.50;2.63;;;18.30;90.70;;;;;;5077991;28;20199;-87
2023/06/28 00:36:55;;;;;;;3.37;2.13;;;18.30;90.80;;;;;;5084424;28;20438;-86
2023/06/28 00:39:21;;;;;;;4.70;1.60;;;18.30;90.60;;;;;;5079906;28;20214;-85
2023/06/28 00:41:46;;;;;;;5.80;1.70;;;18.40;91.20;;;;;;5075242;28;20198;-86
2023/06/28 00:44:11;;;;;;;2.03;1.83;;;18.40;91.50;;;;;;5071030;28;20319;-84
2023/06/28 00:46:37;;;;;;;5.20;2.00;;;18.40;91.00;;;;;;5076798;28;20199;-84
2023/06/28 00:49:03;;;;;;;5.13;1.80;;;18.40;91.00;;;;;;5078829;28;20631;-85
2023/06/28 00:51:31;;;;;;;4.23;2.10;;;18.40;91.90;;;;;;5069668;28;20207;-83
2023/06/28 00:53:57;;;;;;;2.23;1.60;;;18.40;92.80;;;;;;5085076;28;20434;-83
2023/06/28 00:56:24;;;;;;;3.50;1.30;;;18.50;94.10;;;;;;5064448;28;20454;-83
2023/06/28 00:58:51;;;;;;;2.70;1.83;;;18.50;95.30;;;;;;5082548;28;20961;-85
2023/06/28 01:01:17;;;;;;;4.13;2.67;;;18.60;96.00;;;;;;5079240;28;20451;-85
2023/06/28 01:03:43;;;;;;;4.07;2.40;;;18.60;98.10;;;;;;5068866;28;21617;-83
2023/06/28 01:06:12;;;;;;;3.03;1.43;;;18.50;99.80;;;;;;5089849;28;20465;-84
2023/06/28 01:08:39;;;;;;;4.07;2.30;;;18.40;99.90;;;;;;5067385;28;20183;-83
2023/06/28 01:11:06;;;;;;;4.60;2.20;;;18.20;99.90;;;;;;5065638;28;20458;-82
2023/06/28 01:13:34;;;;;;;3.93;2.30;;;18.20;99.90;;;;;;5066580;28;20429;-83
2023/06/28 01:16:00;;;;;;;2.33;1.63;;;18.20;99.90;;;;;;5057087;28;20511;-84
2023/06/28 01:18:26;;;;;;;3.80;1.80;;;18.20;99.90;;;;;;5066533;28;20445;-85
2023/06/28 01:20:54;;;;;;;4.80;1.70;;;18.20;99.90;;;;;;5070864;28;20442;-86
2023/06/28 01:23:21;;;;;;;6.30;2.60;;;18.10;99.90;;;;;;5063078;28;20281;-85
2023/06/28 01:25:47;;;;;;;6.13;1.83;;;18.10;99.90;;;;;;5067029;28;20947;-85
2023/06/28 01:28:13;;;;;;;4.70;2.17;;;18.20;99.90;;;;;;5067028;28;20450;-84
2023/06/28 01:30:39;;;;;;;7.20;2.17;;;18.20;99.90;;;;;;5070799;28;20441;-84
2023/06/28 01:33:05;;;;;;;3.07;1.77;;;18.10;99.90;;;;;;5065413;28;20456;-85
2023/06/28 01:35:31;;;;;;;1.70;1.60;;;18.20;99.90;;;;;;5063723;28;20218;-85
2023/06/28 01:37:58;;;;;;;2.30;2.10;;;18.20;99.90;;;;;;5072937;28;22740;-84
2023/06/28 01:40:24;;;;;;;5.60;2.70;;;18.10;99.90;;;;;;5068743;28;21289;-86
2023/06/28 01:42:49;;;;;;;2.47;2.27;;;18.10;99.90;;;;;;5084645;28;20445;-85
2023/06/28 01:45:15;;;;;;;6.27;2.30;;;18.00;99.90;;;;;;5070836;28;20195;-86
2023/06/28 01:47:41;;;;;;;4.13;2.10;;;17.60;99.90;;;;;;5076466;28;20181;-86
2023/06/28 01:50:07;;;;;;;5.43;2.43;;;17.60;99.90;;;;;;5078509;28;20176;-86
2023/06/28 01:52:33;;;;;;;5.13;2.27;;;17.40;99.90;;;;;;5072018;28;20646;-84
2023/06/28 01:54:59;;;;;;;2.13;1.97;;;17.20;99.90;;;;;;5073433;28;20712;-86
2023/06/28 01:57:24;;;;;;;7.20;2.40;;;17.10;99.90;;;;;;5076685;28;20226;-87
2023/06/28 01:59:49;;;;;;;4.13;2.30;;;17.10;99.90;;;;;;5075587;28;20187;-86
2023/06/28 02:02:15;;;;;;;4.27;2.00;;;17.20;99.90;;;;;;5075434;28;20233;-85
2023/06/28 02:04:41;;;;;;;2.80;1.93;;;17.10;99.90;;;;;;5073027;28;20940;-86
2023/06/28 02:07:06;;;;;;;8.33;2.00;;;17.00;99.90;;;;;;5069691;28;20637;-86
2023/06/28 02:09:31;;;;;;;3.20;2.00;;;16.90;99.90;;;;;;5077959;28;20233;-85
2023/06/28 02:11:57;;;;;;;3.30;1.73;;;16.90;99.90;;;;;;5072337;28;20200;-86
2023/06/28 02:14:22;;;;;;;4.00;2.53;;;16.80;99.90;;;;;;5071734;28;20180;-85
2023/06/28 02:16:48;;;;;;;7.83;2.10;;;16.80;99.90;;;;;;5076672;28;20184;-85
2023/06/28 02:19:15;;;;;;;4.57;2.37;;;16.80;99.90;;;;;;5074422;28;20179;-86
2023/06/28 02:21:40;;;;;;;5.03;1.93;;;16.80;99.90;;;;;;5080086;28;20242;-87
2023/06/28 02:24:08;;;;;;;1.80;1.63;;;16.80;99.90;;;;;;5080128;28;20430;-84
2023/06/28 02:26:35;;;;;;;5.13;2.23;;;16.70;99.90;;;;;;5094663;28;20239;-86
2023/06/28 02:29:00;;;;;;;5.43;1.90;;;16.70;99.90;;;;;;5070481;28;20465;-86
2023/06/28 02:31:26;;;;;;;6.60;1.83;;;16.70;99.90;;;;;;5071517;28;20573;-84
2023/06/28 02:33:51;;;;;;;2.47;2.27;;;16.80;99.90;;;;;;5082513;28;20188;-84
2023/06/28 02:36:17;;;;;;;2.40;2.20;;;16.90;99.90;;;;;;5086528;28;21303;-86
2023/06/28 02:38:43;;;;;;;3.50;1.80;;;;;;;;;;5082957;28;20669;-85
2023/06/28 02:41:10;;;;;;;3.07;2.13;;;16.90;99.90;;;;;;5082202;28;20818;-86
2023/06/28 02:43:36;;;;;;;3.47;1.60;;;;;;;;;;5076028;28;20943;-85
2023/06/28 02:46:01;;;;;;;3.20;1.80;;;17.00;99.90;;;;;;5073424;28;20471;-85
2023/06/28 02:48:27;;;;;;;2.07;1.87;;;17.10;99.90;;;;;;5075203;28;20441;-86
2023/06/28 02:50:52;;;;;;;3.40;2.00;;;18.20;99.90;;;;;;5078028;28;20671;-85
2023/06/28 02:53:18;;;;;;;4.30;1.70;;;;;;;;;;5072492;28;20196;-87
2023/06/28 02:55:44;;;;;;;5.10;2.17;;;17.20;99.90;;;;;;5067637;28;20204;-83
2023/06/28 02:58:09;;;;;;;2.17;1.80;;;17.20;99.90;;;;;;5070875;28;20466;-85
2023/06/28 03:00:37;;;;;;;6.77;2.00;;;;;;;;;;5085867;28;20187;-85
2023/06/28 03:03:03;;;;;;;4.63;1.47;;;17.30;99.90;;;;;;5076666;28;20190;-84
2023/06/28 03:05:29;;;;;;;3.80;1.50;;;17.30;99.90;;;;;;5066458;28;20454;-84
2023/06/28 03:07:55;;;;;;;3.93;2.23;;;17.30;99.90;;;;;;5068652;28;20447;-86
2023/06/28 03:10:20;;;;;;;3.30;1.67;;;17.30;99.90;;;;;;5062151;28;21144;-87
2023/06/28 03:12:46;;;;;;;3.73;1.90;;;17.30;99.90;;;;;;5074551;28;20227;-88
2023/06/28 03:15:11;;;;;;;3.50;2.30;;;17.30;99.90;;;;;;5068081;28;20241;-84
2023/06/28 03:17:37;;;;;;;3.80;1.80;;;17.20;99.90;;;;;;5079973;28;20234;-86
2023/06/28 03:20:02;;;;;;;2.40;1.77;;;17.20;99.90;;;;;;5075393;28;20242;-87
2023/06/28 03:22:28;;;;;;;3.33;1.90;;;17.20;99.90;;;;;;5071412;28;20188;-86
2023/06/28 03:24:53;;;;;;;3.00;2.03;;;17.20;99.90;;;;;;5066317;28;20211;-86
2023/06/28 03:27:19;;;;;;;4.00;2.03;;;17.20;99.90;;;;;;5062800;28;20656;-84
2023/06/28 03:29:45;;;;;;;2.97;1.67;;;;;;;;;;5064238;28;20187;-85
2023/06/28 03:32:10;;;;;;;5.80;2.30;;;17.10;99.90;;;;;;5063138;28;20697;-84
2023/06/28 03:34:36;;;;;;;5.20;1.70;;;17.10;99.90;;;;;;5066833;28;20528;-84
2023/06/28 03:37:02;;;;;;;5.03;2.00;;;;;;;;;;5074411;28;20194;-83
2023/06/28 03:39:28;;;;;;;15.40;2.30;;;17.20;99.90;;;;;;5062497;28;20984;-84
2023/06/28 03:41:53;;;;;;;1.57;1.43;;;17.30;99.90;;;;;;5064466;28;20441;-85
2023/06/28 03:44:19;;;;;;;3.27;2.17;;;17.40;99.90;;;;;;5064997;28;20227;-87
2023/06/28 03:46:44;;;;;;;1.67;1.47;;;17.50;99.90;;;;;;5072856;28;20338;-87
2023/06/28 03:49:10;;;;;;;3.43;1.83;;;;;;;;;;5069503;28;20198;-86
2023/06/28 03:51:36;;;;;;;5.53;1.90;;;17.50;99.90;;;;;;5073409;28;20456;-87
2023/06/28 03:54:01;;;;;;;2.20;2.00;;;17.60;99.90;;;;;;5069157;28;20442;-87
2023/06/28 03:56:27;;;;;;;3.30;1.87;;;17.60;99.90;;;;;;5080044;27;20232;-87
2023/06/28 03:58:53;;;;;;;9.43;2.57;;;;;;;;;;5079196;28;20465;-86
2023/06/28 04:01:18;;;;;;;2.67;2.03;;;17.50;99.90;;;;;;5063468;28;20183;-87
2023/06/28 04:03:44;;;;;;;2.70;2.07;;;17.50;99.90;;;;;;5073696;28;20442;-85
2023/06/28 04:06:10;;;;;;;2.23;1.70;;;;;;;;;;5079662;28;20208;-85
2023/06/28 04:08:36;;;;;;;4.47;1.70;;;17.60;99.90;;;;;;5067107;28;20719;-87
2023/06/28 04:11:01;;;;;;;2.23;2.00;;;17.70;99.90;;;;;;5069223;28;20592;-87
2023/06/28 04:13:27;;;;;;;7.93;2.03;;;17.60;99.90;;;;;;5064189;28;20192;-86
2023/06/28 04:15:53;;;;;;;2.50;1.63;;;17.40;99.90;;;;;;5076568;28;20226;-85
2023/06/28 04:18:18;;;;;;;2.60;1.93;;;17.20;99.90;;;;;;5063833;28;20314;-85
2023/06/28 04:20:44;;;;;;;3.43;1.93;;;;;;;;;;5064294;28;21030;-86
2023/06/28 04:23:11;;;;;;;3.80;1.60;;;17.10;99.90;;;;;;5071786;28;20180;-85
2023/06/28 04:25:37;;;;;;;2.27;1.40;;;;;;;;;;5071881;28;20554;-86
2023/06/28 04:28:03;;;;;;;4.07;2.10;;;17.10;99.90;;;;;;5071435;28;20418;-84
2023/06/28 04:30:31;;;;;;;6.27;2.13;;;17.10;99.90;;;;;;5083110;28;20422;-85
2023/06/28 04:32:56;;;;;;;2.20;1.90;;;17.10;99.90;;;;;;5073277;28;20495;-86
2023/06/28 04:35:22;;;;;;;2.60;1.70;;;17.10;99.90;;;;;;5069523;28;20453;-85
2023/06/28 04:37:50;;;;;;;2.73;2.23;;;;;;;;;;5070177;28;20184;-87
2023/06/28 04:40:16;;;;;;;3.43;1.70;;;17.10;99.90;;;;;;5077817;28;20179;-86
2023/06/28 04:42:41;;;;;;;2.20;1.50;;;17.20;99.90;;;;;;5065466;28;20463;-84
2023/06/28 04:45:09;;;;;;;3.30;1.73;;;17.10;99.90;;;;;;5067906;28;20288;-86
2023/06/28 04:47:35;;;;;;;3.13;1.80;;;17.10;99.90;;;;;;5069818;28;20211;-86
2023/06/28 04:50:01;;;;;;;2.97;1.53;;;17.10;99.90;;;;;;5069739;28;20452;-86
2023/06/28 04:52:26;;;;;;;4.90;1.40;;;17.10;99.90;;;;;;5071404;28;20469;-86
2023/06/28 04:54:52;;;;;;;2.50;2.00;;;17.20;99.90;;;;;;5069461;28;20564;-87
2023/06/28 04:57:20;;;;;;;3.27;1.93;;;17.30;99.90;;;;;;5066881;28;20197;-85
2023/06/28 04:59:46;;;;;;;2.10;1.27;;;17.40;99.90;;;;;;5068423;28;20251;-86
2023/06/28 05:02:12;;;;;;;3.90;2.07;;;;;;;;;;5064888;28;21132;-86
2023/06/28 05:04:37;;;;;;;4.67;1.70;;;17.40;99.90;;;;;;5064795;28;20187;-85
2023/06/28 05:07:05;;;;;;;4.00;1.67;;;17.50;99.90;;;;;;5064476;28;20445;-87
2023/06/28 05:09:32;;;;;;;3.30;1.80;;;17.40;99.90;;;;;;5067799;28;20172;-85
2023/06/28 05:11:58;;;;;;;3.43;1.77;;;17.50;99.90;;;;;;5067209;28;20473;-86
2023/06/28 05:14:25;;;;;;;3.47;2.63;;;17.50;99.90;;;;;;5067443;28;20818;-85
2023/06/28 05:16:51;;;;;;;3.10;2.10;;;17.50;99.90;;;;;;5070315;28;20514;-85
2023/06/28 05:19:17;;;;;;;6.33;2.13;;;17.40;99.90;;;;;;5073154;28;20438;-85
2023/06/28 05:21:42;;;;;;;3.83;2.13;;;17.40;99.90;;;;;;5072856;28;20429;-86
2023/06/28 05:24:08;;;;;;;5.03;2.03;;;17.30;99.90;;;;;;5078862;28;20456;-85
2023/06/28 05:26:34;;;;;;;3.60;2.07;;;17.40;99.90;;;;;;5075975;28;20204;-86
2023/06/28 05:28:59;;;;;;;2.93;1.40;;;;;;;;;;5073855;28;20176;-87
2023/06/28 05:31:25;;;;;;;2.73;1.97;;;17.70;99.90;;;;;;5068551;28;20680;-86
2023/06/28 05:33:50;;;;;;;3.10;2.27;;;17.80;99.90;;;;;;5083787;28;20433;-86
2023/06/28 05:36:20;;;;;;;4.20;1.87;;;17.90;99.90;;;;;;5081601;28;20303;-84
2023/06/28 05:38:45;;;;;;;2.23;1.90;;;18.00;99.90;;;;;;5073716;28;20164;-86
2023/06/28 05:41:12;;;;;;;3.87;1.93;;;18.20;99.90;;;;;;5080272;28;20449;-86
2023/06/28 05:43:38;;;;;;;2.50;1.67;;;18.10;99.90;;;;;;5078854;28;20289;-87
2023/06/28 05:46:04;;;;;;;3.13;1.50;;;;;;;;;;5079691;28;20457;-87
2023/06/28 05:48:31;;;;;;;1.97;1.70;;;18.00;99.90;;;;;;5080109;28;20857;-87
2023/06/28 05:50:56;;;;;;;3.97;2.57;;;18.10;99.90;;;;;;5059511;28;20457;-87
2023/06/28 05:53:22;;;;;;;8.03;2.70;;;;;;;;;;5069552;28;20435;-87
2023/06/28 05:55:48;;;;;;;2.50;1.97;;;18.30;99.90;;;;;;5074635;28;20219;-88
2023/06/28 05:58:13;;;;;;;10.63;2.23;;;18.50;99.90;;;;;;5083107;28;20479;-87
2023/06/28 06:00:39;;;;;;;2.90;1.93;;;18.60;99.90;;;;;;5081495;28;20263;-88
2023/06/28 06:03:05;;;;;;;2.40;2.07;;;18.60;99.90;;;;;;5079556;28;20180;-87
2023/06/28 06:05:30;;;;;;;2.47;2.07;;;18.70;99.90;;;;;;5072919;28;20453;-85
2023/06/28 06:07:56;;;;;;;4.53;2.53;;;18.80;99.90;;;;;;5078252;28;20191;-87
2023/06/28 06:10:21;;;;;;;6.83;2.73;;;18.70;99.90;;;;;;5076993;28;20651;-86
2023/06/28 06:12:47;;;;;;;4.03;2.00;;;18.60;99.90;;;;;;5075568;28;20252;-88
2023/06/28 06:15:13;;;;;;;7.10;3.70;;;;;;;;;;5074788;28;20830;-88
2023/06/28 06:17:38;;;;;;;7.20;2.30;;;18.60;99.90;;;;;;5081885;28;20168;-86
2023/06/28 06:20:04;;;;;;;6.60;2.90;;;18.70;99.90;;;;;;5081623;28;22109;-88
2023/06/28 06:22:30;;;;;;;7.50;3.40;;;18.90;99.90;;;;;;5097867;28;20325;-88
2023/06/28 06:24:56;;;;;;;4.30;3.13;;;;;;;;;;5079439;28;20455;-88
2023/06/28 06:27:21;;;;;;;4.97;2.90;;;18.90;99.90;;;;;;5080784;28;20205;-87
2023/06/28 06:29:47;;;;;;;3.77;3.23;;;19.30;99.90;;;;;;5079230;28;20947;-88
2023/06/28 06:32:13;;;;;;;5.83;3.20;;;19.00;99.90;;;;;;5073592;28;20192;-88
2023/06/28 06:34:39;;;;;;;2.83;2.30;;;;;;;;;;5076431;28;20193;-87
2023/06/28 06:37:05;;;;;;;5.20;2.17;;;19.50;99.90;;;;;;5077581;28;20192;-87
2023/06/28 06:39:31;;;;;;;5.37;3.00;;;;;;;;;;5076569;28;20559;-86
2023/06/28 06:41:56;;;;;;;2.63;2.40;;;20.00;99.90;;;;;;5079058;28;21127;-86
2023/06/28 06:44:22;;;;;;;4.50;2.40;;;20.60;99.90;;;;;;5080872;28;20964;-87
2023/06/28 06:46:47;;;;;;;2.13;1.90;;;;;;;;;;5075209;28;20207;-87
2023/06/28 06:49:18;;;;;;;5.43;2.90;;;;;;;;;;5076572;28;20195;-86
2023/06/28 06:51:44;;;;;;;3.50;1.90;;;21.00;99.90;;;;;;5078030;28;20489;-86
2023/06/28 06:54:09;;;;;;;2.90;2.13;;;21.00;99.90;;;;;;5080710;28;20461;-86
2023/06/28 06:56:35;;;;;;;3.67;1.60;;;;;;;;;;5078293;28;20207;-86
2023/06/28 06:59:01;;;;;;;2.00;1.80;;;21.30;99.90;;;;;;5078611;28;20685;-85
2023/06/28 07:01:29;;;;;;;4.80;1.87;;;21.60;99.90;;;;;;5085119;28;20417;-85
2023/06/28 07:03:54;;;;;;;4.97;2.77;;;21.90;99.90;;;;;;5094426;28;20175;-86
2023/06/28 07:06:20;;;;;;;2.53;2.30;;;23.10;99.90;;;;;;5080449;28;20457;-87
2023/06/28 07:08:46;;;;;;;4.67;2.20;;;;;;;;;;5080123;28;20268;-87
2023/06/28 07:11:12;;;;;;;3.60;2.50;;;22.20;99.00;;;;;;5076622;28;20211;-87
2023/06/28 07:13:38;;;;;;;7.57;2.40;;;21.70;99.50;;;;;;5082359;28;20441;-87
2023/06/28 07:16:04;;;;;;;8.83;2.30;;;;;;;;;;5090375;28;20195;-86
2023/06/28 07:18:30;;;;;;;3.93;2.53;;;;;;;;;;5079601;28;20436;-86
2023/06/28 07:20:56;;;;;;;6.00;2.77;;;;;;;;;;5098252;28;20429;-86
2023/06/28 07:23:22;;;;;;;8.20;2.23;;;;;;;;;;5080999;28;20429;-87
2023/06/28 07:25:47;;;;;;;3.93;2.40;;;21.20;99.90;;;;;;5075918;28;20668;-86
2023/06/28 07:28:13;;;;;;;12.80;3.17;;;21.10;99.90;;;;;;5072273;28;20437;-87
2023/06/28 07:30:58;;;;;;;3.80;2.70;;;21.00;99.90;;;;;;5074763;28;20173;-86
2023/06/28 07:33:25;;;;;;;4.60;2.40;;;21.00;99.90;;;;;;5080808;28;20190;-88
2023/06/28 07:35:51;;;;;;;4.20;2.40;;;21.10;99.90;;;;;;5077925;28;20457;-87
2023/06/28 07:38:20;;;;;;;3.90;2.73;;;21.10;99.90;;;;;;5077935;28;20471;-88
2023/06/28 07:40:49;;;;;;;3.10;2.23;;;21.10;99.90;;;;;;5075023;28;20441;-87
2023/06/28 07:43:15;;;;;;;9.63;2.20;;;21.20;99.90;;;;;;5077723;28;22955;-88
2023/06/28 07:45:41;;;;;;;6.57;3.00;;;21.40;99.90;;;;;;5088246;28;20452;-88
2023/06/28 07:48:07;;;;;;;5.37;2.37;;;;;;;;;;5078714;28;20435;-88
2023/06/28 07:50:33;;;;;;;4.80;2.50;;;;;;;;;;5102343;28;20671;-88
2023/06/28 07:52:59;;;;;;;6.13;2.23;;;21.50;98.50;;;;;;5086102;28;21251;-87
2023/06/28 07:55:27;;;;;;;5.37;2.90;;;;;;;;;;5079528;28;20631;-88
2023/06/28 07:57:53;;;;;;;3.87;2.40;;;;;;;;;;5076736;28;20180;-88
2023/06/28 08:00:19;;;;;;;6.37;2.37;;;21.30;98.00;;;;;;5078568;28;20455;-88
2023/06/28 08:02:45;;;;;;;2.90;2.23;;;21.20;98.60;;;;;;5075685;28;20518;-88
2023/06/28 08:05:10;;;;;;;2.80;2.20;;;21.70;97.50;;;;;;5077277;28;20199;-88
2023/06/28 08:07:36;;;;;;;4.40;2.10;;;21.50;95.80;;;;;;5077163;28;21869;-89
2023/06/28 08:10:02;;;;;;;7.13;2.37;;;;;;;;;;5078665;28;20180;-88
2023/06/28 08:12:28;;;;;;;2.67;1.50;;;;;;;;;;5081003;28;20223;-89
2023/06/28 08:14:54;;;;;;;2.70;1.97;;;;;;;;;;5078706;28;21173;-85
2023/06/28 08:17:20;;;;;;;3.43;2.30;;;22.10;92.80;;;;;;5086998;28;20421;-88
2023/06/28 08:19:46;;;;;;;5.03;1.77;;;22.10;93.10;;;;;;5076039;28;20655;-88
2023/06/28 08:22:12;;;;;;;3.07;2.50;;;;;;;;;;5075436;28;20434;-88
2023/06/28 08:24:38;;;;;;;3.33;1.93;;;;;;;;;;5076903;28;20180;-88
2023/06/28 08:27:05;;;;;;;4.57;2.03;;;;;;;;;;5077321;28;21985;-88
2023/06/28 08:29:30;;;;;;;2.67;2.10;;;21.90;92.20;;;;;;5080427;28;21270;-88
2023/06/28 08:31:56;;;;;;;4.53;2.00;;;;;;;;;;5090792;28;20500;-88
2023/06/28 08:34:22;;;;;;;5.37;2.20;;;;;;;;;;5082116;28;20275;-87
2023/06/28 08:36:48;;;;;;;5.50;2.23;;;;;;;;;;5079008;28;20449;-87
2023/06/28 08:39:14;;;;;;;8.73;2.50;;;23.10;90.90;;;;;;5077308;28;20460;-88
2023/06/28 08:41:41;;;;;;;5.73;2.43;;;23.70;90.30;;;;;;5071320;28;20448;-88
2023/06/28 08:44:12;;;;;;;5.00;2.33;;;24.00;88.20;;;;;;5078965;28;21101;-89
2023/06/28 08:46:39;;;;;;;5.40;2.10;;;24.30;86.40;;;;;;5083556;28;20461;-88
2023/06/28 08:49:05;;;;;;;4.40;2.20;;;;;;;;;;5088503;28;20446;-88
2023/06/28 08:51:32;;;;;;;6.37;2.03;;;24.60;82.00;;;;;;5082152;28;20520;-88
2023/06/28 08:53:58;;;;;;;7.00;2.53;;;;;;;;;;5082032;28;20457;-88
2023/06/28 08:56:24;;;;;;;3.77;2.13;;;;;;;;;;5075500;28;20458;-88
2023/06/28 08:58:51;;;;;;;5.53;2.20;;;;;;;;;;5078492;28;20553;-88
2023/06/28 09:01:20;;;;;;;3.80;2.17;;;25.70;75.10;;;;;;5077500;28;20505;-89
2023/06/28 09:03:46;;;;;;;3.50;2.40;;;;;;;;;;5075967;28;20464;-88
2023/06/28 09:06:13;;;;;;;2.40;1.63;;;27.30;67.20;;;;;;5077774;28;20459;-89
2023/06/28 09:08:39;;;;;;;4.00;2.57;;;27.30;68.80;;;;;;5080193;28;20444;-88
2023/06/28 09:11:05;;;;;;;7.10;2.43;;;;;;;;;;5096013;28;21169;-89
2023/06/28 09:13:31;;;;;;;4.93;2.13;;;;;;;;;;5083620;28;20436;-88
2023/06/28 09:15:57;;;;;;;2.13;1.93;;;;;;;;;;5078614;28;20774;-89
2023/06/28 09:18:23;;;;;;;3.20;2.17;;;;;;;;;;5078904;28;20430;-89
2023/06/28 09:20:54;;;;;;;7.43;2.53;;;26.30;65.70;;;;;;5074892;28;20436;-88
2023/06/28 09:23:32;;;;;;;4.20;2.50;;;26.10;66.00;;;;;;5075818;28;20463;-88
2023/06/28 09:25:58;;;;;;;6.23;2.10;;;;;;;;;;5077669;28;20492;-85
2023/06/28 09:28:34;;;;;;;4.50;2.20;;;29.00;56.70;;;;;;5076175;28;20465;-86
2023/06/28 09:31:00;;;;;;;6.00;2.50;;;29.20;55.40;;;;;;5069144;28;20457;-86
2023/06/28 09:33:26;;;;;;;2.57;2.37;;;30.80;53.90;;;;;;5079165;28;20487;-88
2023/06/28 09:36:02;;;;;;;4.00;2.60;;;31.20;50.30;;;;;;5074630;28;20480;-88
2023/06/28 09:38:28;;;;;;;3.10;2.80;;;;;;;;;;5088080;28;20488;-89
2023/06/28 09:40:54;;;;;;;2.97;2.77;;;;;;;;;;5071047;28;20439;-88
2023/06/28 09:43:21;;;;;;;5.10;2.60;;;29.80;52.40;;;;;;5073739;28;20466;-87
2023/06/28 09:45:47;;;;;;;2.80;2.50;;;29.30;50.80;;;;;;5081434;28;20453;-87
2023/06/28 09:48:13;;;;;;;2.63;1.90;;;;;;;;;;5081727;28;20429;-88
2023/06/28 09:50:44;;;;;;;4.33;2.93;;;28.90;50.90;;;;;;5079138;28;20438;-87
2023/06/28 09:53:15;;;;;;;3.83;2.50;;;28.90;51.80;;;;;;5078684;28;20483;-88
2023/06/28 09:55:42;;;;;;;3.70;2.83;;;30.00;50.20;;;;;;5093881;28;20451;-92
2023/06/28 09:58:12;;;;;;;3.13;2.90;;;31.40;47.60;;;;;;5096999;28;21083;-91
2023/06/28 10:00:39;;;;;;;3.27;3.00;;;32.40;46.30;;;;;;5079758;28;20501;-90
2023/06/28 10:03:07;;;;;;;10.50;4.07;;;32.70;46.40;;;;;;5078847;28;20436;-91
2023/06/28 10:05:34;;;;;;;4.47;3.30;;;31.00;44.20;;;;;;5077665;28;20793;-90
2023/06/28 10:08:02;;;;;;;3.30;3.00;;;28.50;47.80;;;;;;5082858;28;20493;-89
2023/06/28 10:10:28;;;;;;;6.43;3.23;;;;;;;;;;5081927;28;20459;-89
2023/06/28 10:12:57;;;;;;;3.23;3.00;;;27.90;49.80;;;;;;5079196;28;20825;-90
2023/06/28 10:15:24;;;;;;;4.93;3.30;;;28.00;50.00;;;;;;5081061;28;20459;-90
2023/06/28 10:17:50;;;;;;;3.43;2.80;;;29.10;48.50;;;;;;5080632;28;20442;-89
2023/06/28 10:20:17;;;;;;;2.63;2.40;;;;;;;;;;5077823;28;20428;-89
2023/06/28 10:22:44;;;;;;;3.60;2.40;;;27.90;51.00;;;;;;5080359;28;20439;-90
2023/06/28 10:25:10;;;;;;;3.03;2.70;;;;;;;;;;5082223;28;20819;-90
2023/06/28 10:27:36;;;;;;;3.20;2.90;;;;;;;;;;5079458;28;20444;-89
2023/06/28 10:30:03;;;;;;;5.43;2.43;;;26.40;53.30;;;;;;5076705;28;20443;-89
2023/06/28 10:32:29;;;;;;;10.03;2.60;;;26.10;55.00;;;;;;5073527;28;20555;-89
2023/06/28 10:34:57;;;;;;;3.83;2.20;;;26.30;57.20;;;;;;5078986;28;20494;-89
2023/06/28 10:37:23;;;;;;;3.00;2.50;;;26.10;56.80;;;;;;5078649;28;20453;-89
2023/06/28 10:39:50;;;;;;;2.77;2.00;;;26.40;56.90;;;;;;5085300;28;20974;-89
2023/06/28 10:42:16;;;;;;;5.13;3.00;;;;;;;;;;5104145;28;20533;-89
2023/06/28 10:44:56;;;;;;;7.20;2.00;;;26.50;58.60;;;;;;5084059;28;20446;-89
2023/06/28 10:47:22;;;;;;;8.90;2.90;;;26.60;59.00;;;;;;5078151;28;20470;-90
2023/06/28 10:50:10;;;;;;;4.50;2.37;;;26.70;56.50;;;;;;5078143;28;20466;-89
2023/06/28 10:52:46;;;;;;;6.30;2.80;;;27.40;56.00;;;;;;5077818;28;20462;-89
2023/06/28 10:55:13;;;;;;;7.70;2.80;;;;;;;;;;5078761;28;21358;-90
2023/06/28 10:57:39;;;;;;;3.43;2.20;;;29.30;53.70;;;;;;5079791;28;20931;-89
2023/06/28 11:00:29;;;;;;;3.80;2.60;;;29.60;51.20;;;;;;5079458;28;21477;-90
2023/06/28 11:03:05;;;;;;;3.57;3.27;;;29.50;51.50;;;;;;5079832;28;20499;-89
2023/06/28 11:05:54;;;;;;;2.30;2.10;;;27.60;53.80;;;;;;5072969;28;20461;-89
2023/06/28 11:08:20;;;;;;;6.00;2.87;;;26.40;55.60;;;;;;5079104;28;20442;-89
2023/06/28 11:10:54;;;;;;;2.40;2.20;;;26.40;56.20;;;;;;5078514;28;20574;-89
2023/06/28 11:13:48;;;;;;;3.67;2.77;;;26.90;56.90;;;;;;5080000;28;20517;-90
2023/06/28 11:16:20;;;;;;;9.90;3.03;;;27.10;56.50;;;;;;5094529;28;20522;-88
2023/06/28 11:18:47;;;;;;;4.90;2.73;;;27.10;57.00;;;;;;5076826;28;20430;-88
2023/06/28 11:21:21;;;;;;;4.87;2.57;;;27.30;57.60;;;;;;5081347;28;20455;-90
2023/06/28 11:23:47;;;;;;;3.77;3.00;;;27.30;58.10;;;;;;5080884;28;20433;-90
2023/06/28 11:26:18;;;;;;;7.03;2.57;;;26.60;56.40;;;;;;5087838;28;20449;-91
2023/06/28 11:28:53;;;;;;;3.53;2.30;;;26.90;57.10;;;;;;5090951;28;20486;-89
2023/06/28 11:31:38;;;;;;;2.73;2.50;;;26.70;57.20;;;;;;5099701;28;20460;-88
2023/06/28 11:34:04;;;;;;;3.50;2.83;;;;;;;;;;5079579;28;20469;-89
2023/06/28 11:36:31;;;;;;;4.43;2.30;;;26.20;57.00;;;;;;5079724;28;21056;-89
2023/06/28 11:38:57;;;;;;;5.63;2.30;;;26.10;58.30;;;;;;5079126;28;21005;-89
2023/06/28 11:41:22;;;;;;;4.00;2.40;;;25.80;57.60;;;;;;5081782;28;20460;-89
2023/06/28 11:43:48;;;;;;;3.80;2.53;;;25.60;58.40;;;;;;5075912;28;20295;-89
2023/06/28 11:46:19;;;;;;;3.50;2.40;;;25.80;58.90;;;;;;5081114;28;20234;-89
2023/06/28 11:48:46;;;;;;;4.77;2.43;;;26.70;56.60;;;;;;5103174;28;20435;-90
2023/06/28 11:51:13;;;;;;;3.13;2.13;;;26.60;56.60;;;;;;5080369;28;20894;-89
2023/06/28 11:53:39;;;;;;;4.17;2.03;;;26.60;57.10;;;;;;5080938;28;20527;-89
2023/06/28 11:56:05;;;;;;;3.30;2.80;;;;;;;;;;5071682;28;20591;-89
2023/06/28 11:58:35;;;;;;;5.63;2.60;;;26.90;55.30;;;;;;5077775;28;21548;-89
2023/06/28 12:01:05;;;;;;;5.13;2.40;;;27.40;55.00;;;;;;5087437;28;20439;-89
2023/06/28 12:03:36;;;;;;;3.83;2.43;;;27.40;55.50;;;;;;5081781;28;20437;-90
2023/06/28 12:06:04;;;;;;;4.13;2.30;;;26.70;56.10;;;;;;5096234;28;20472;-89
2023/06/28 12:08:41;;;;;;;4.17;2.27;;;26.70;56.60;;;;;;5081609;28;20426;-90
2023/06/28 12:11:17;;;;;;;7.60;2.97;;;26.00;56.50;;;;;;5076546;28;20922;-89
2023/06/28 12:13:43;;;;;;;6.60;2.37;;;25.70;57.60;;;;;;5074661;28;20548;-89
2023/06/28 12:16:21;;;;;;;2.00;1.90;;;26.40;59.30;;;;;;5077194;28;20857;-89
2023/06/28 12:19:01;;;;;;;8.23;2.70;;;26.00;60.10;;;;;;5074232;28;20788;-89
2023/06/28 12:21:28;;;;;;;5.37;2.40;;;26.70;56.30;;;;;;5100510;28;21053;-89
2023/06/28 12:24:22;;;;;;;4.17;2.30;;;25.90;57.10;;;;;;5079904;28;20451;-88
2023/06/28 12:26:49;;;;;;;3.70;2.37;;;26.00;57.20;;;;;;5079411;28;20466;-90
2023/06/28 12:29:18;;;;;;;3.10;2.57;;;26.10;56.90;;;;;;5083017;28;21529;-87
2023/06/28 12:31:47;;;;;;;3.60;2.70;;;25.60;57.40;;;;;;5080618;28;20455;-88
2023/06/28 12:34:23;;;;;;;3.13;1.90;;;25.80;58.30;;;;;;5075880;28;20444;-88
2023/06/28 12:36:57;;;;;;;5.60;2.23;;;25.80;58.60;;;;;;5080912;28;20457;-88
2023/06/28 12:39:23;;;;;;;3.30;2.10;;;26.00;58.40;;;;;;5082161;28;20436;-87
2023/06/28 12:42:19;;;;;;;3.30;2.40;;;26.00;59.50;;;;;;5092565;28;20437;-89
2023/06/28 12:45:00;;;;;;;6.77;2.90;;;26.40;59.30;;;;;;5085668;28;20454;-88
2023/06/28 12:47:28;;;;;;;5.23;2.70;;;26.50;59.60;;;;;;5092825;28;20445;-91
2023/06/28 12:49:54;;;;;;;6.10;1.83;;;;;;;;;;5076944;28;21012;-91
2023/06/28 12:52:20;;;;;;;1.97;1.77;;;;;;;;;;5082434;28;20466;-87
2023/06/28 12:54:46;;;;;;;4.17;2.20;;;25.80;57.20;;;;;;5109777;28;21680;-90
2023/06/28 12:57:12;;;;;;;2.50;2.30;;;;;;;;;;5086495;28;20519;-91
2023/06/28 12:59:39;;;;;;;5.07;2.30;;;26.70;56.70;;;;;;5087010;28;20616;-90
2023/06/28 13:02:06;;;;;;;3.83;2.10;;;;;;;;;;5080949;28;20552;-87
2023/06/28 13:04:38;;;;;;;5.23;2.43;;;26.30;56.80;;;;;;5081078;28;20502;-90
2023/06/28 13:07:04;;;;;;;2.37;1.87;;;26.20;56.80;;;;;;5097228;28;20439;-91